Home   Weather   Romania   Iași   Past weeks
Flag for Romania

Past Weather in Iași, Romania — Yesterday and Last 2 Weeks

Currently: 79 °F. Passing clouds. (Weather station: Iasi Airport, Romania). See more current weather

Past Weather in Iași — Graph

°F

Iași Temperature Yesterday

Maximum temperature yesterday: 84 °F (at 4:00 pm)
Minimum temperature yesterday: 59 °F (at 5:30 am)
Average temperature yesterday: 72 °F

High & Low Weather Summary for the Past Weeks

 TemperatureHumidityPressure
High88 °F (Jun 10, 2:30 pm)100% (Jun 5, 2:00 am)30.12 "Hg (Jun 5, 2:00 am)
Low59 °F (Jun 5, 5:30 am)37% (Jun 6, 7:00 pm)29.65 "Hg (Jun 10, 11:30 pm)
Average71 °F74%29.89 "Hg
* Reported Jun 3 8:00 pm — Jun 18 8:00 pm, Iași. Weather by CustomWeather, © 2024

Note: Actual official high and low records may vary slightly from our data, if they occured in-between our weather recording intervals... More about our weather records

Iași Weather History for the Previous 24 Hours

Scroll right to see more
 ConditionsComfort  
Time TempWeatherWind HumidityBarometerVisibility
8:00 pm
Tue, Jun 18
81 °FSunny.5 mph54%30.07 "Hg10 mi
7:30 pm82 °FSunny.5 mph51%30.07 "Hg10 mi
7:00 pm82 °FPassing clouds.5 mph48%30.07 "HgN/A
6:30 pm84 °FPassing clouds.5 mph45%30.07 "HgN/A
6:00 pm84 °FPassing clouds.3 mph45%30.07 "HgN/A
5:30 pm84 °FPassing clouds.3 mph43%30.07 "HgN/A
5:00 pm84 °FPassing clouds.5 mph45%30.07 "HgN/A
3:30 pm84 °FPassing clouds.6 mph45%30.09 "HgN/A
2:00 pm82 °FPassing clouds.3 mph51%30.09 "HgN/A
1:30 pm82 °FPassing clouds.5 mph51%30.09 "HgN/A
12:30 pm81 °FPassing clouds.2 mph54%30.12 "HgN/A
11:30 am81 °FPassing clouds.3 mph54%30.12 "HgN/A
10:30 am79 °FSunny.3 mph58%30.09 "Hg10 mi
10:00 am77 °FPassing clouds.3 mph61%30.09 "HgN/A
9:30 am75 °FPassing clouds.3 mph65%30.09 "HgN/A
9:00 am73 °FPassing clouds.3 mph69%30.09 "HgN/A
8:30 am72 °FSunny.2 mph73%30.09 "Hg10 mi
8:00 am70 °FPassing clouds.3 mph83%30.09 "HgN/A
7:30 am68 °FSunny.5 mph88%30.09 "Hg10 mi
7:00 am66 °FSunny.3 mph94%30.07 "Hg10 mi
6:30 am66 °FPassing clouds.3 mph94%30.07 "HgN/A
5:00 am66 °FPassing clouds.6 mph88%30.07 "HgN/A
4:30 am66 °FOvercast.6 mph94%30.07 "HgN/A
4:00 am64 °FOvercast.5 mph100%30.04 "HgN/A
3:30 am64 °FPassing clouds.3 mph94%30.04 "HgN/A
3:00 am68 °FClear.1 mph83%30.04 "Hg10 mi
2:30 am68 °FClear.5 mph83%30.04 "Hg10 mi
2:00 am68 °FClear.5 mph88%30.04 "Hg10 mi
1:00 am66 °FClear.6 mph94%30.04 "Hg10 mi
12:30 am68 °FClear.5 mph88%30.01 "Hg10 mi
11:30 pm
Mon, Jun 17
72 °FClear.5 mph73%30.01 "Hg10 mi
11:00 pm73 °FClear.5 mph69%30.01 "Hg10 mi
10:30 pm72 °FClear.3 mph78%30.01 "Hg10 mi
10:00 pm75 °FPassing clouds.5 mph65%29.98 "HgN/A
9:30 pm75 °FClear.5 mph65%29.98 "Hg10 mi
9:00 pm77 °FSunny.5 mph57%29.98 "Hg10 mi
Weather by CustomWeather, © 2024

See weather overview